Weather at Midland International Airport

Public forecast

Using degrees Fahrenheit for public forecast. Weather courtesy of forecast.io.

Current aviation weather report (METAR) for Midland International Airport

Retrieved 2021/09/26 23:53 UTC (25 minutes ago):

KMAF 262353Z 14010KT 10SM CLR 29/09 A2999 RMK AO2 SLP114 T02940094 10306 20272 56009

Aviation forecast (TAF) for Midland International Airport

Retrieved 2021-09-27 00:33 UTC (0 seconds ago):

TAF KMAF 262331Z 2700/2724 16010KT P6SM FEW250 FM270800 22010KT P6SM SCT100 BKN250